Time;durP1;ratioP1;P1;durP2;ratioP2;P2;SDS_P1;SDS_P2;PMS_P1;PMS_P2;Temp;Humidity;BMP_temperature;BMP_pressure;BME280_temperature;BME280_humidity;BME280_pressure;Samples;Min_cycle;Max_cycle;Signal;HPM_P1;HPM_P2
2022/12/28 00:01:52;;;;;;;3.22;0.95;;;17.50;59.50;;;;;;7406026;19;19918;-63
2022/12/28 00:04:23;;;;;;;1.80;0.43;;;17.50;59.50;;;;;;7405467;19;20370;-63
2022/12/28 00:06:52;;;;;;;1.10;0.25;;;17.50;59.60;;;;;;7405885;19;19922;-63
2022/12/28 00:09:21;;;;;;;1.42;0.22;;;17.50;59.50;;;;;;7408350;19;19922;-63
2022/12/28 00:11:51;;;;;;;1.50;0.32;;;17.50;59.50;;;;;;7405325;19;19930;-63
2022/12/28 00:14:23;;;;;;;1.52;0.82;;;17.50;59.60;;;;;;7406099;19;19970;-63
2022/12/28 00:16:53;;;;;;;1.58;0.40;;;17.50;59.50;;;;;;7406103;19;19922;-63
2022/12/28 00:19:22;;;;;;;2.00;0.22;;;17.50;59.50;;;;;;7404666;19;19990;-63
2022/12/28 00:21:54;;;;;;;1.02;0.57;;;17.50;59.50;;;;;;7405864;19;19938;-64
2022/12/28 00:24:25;;;;;;;1.15;0.13;;;17.50;59.50;;;;;;7405165;19;19919;-63
2022/12/28 00:26:55;;;;;;;2.47;0.50;;;17.60;59.50;;;;;;7404997;19;19922;-63
2022/12/28 00:29:27;;;;;;;1.05;0.10;;;17.60;59.50;;;;;;7403998;19;20340;-63
2022/12/28 00:31:56;;;;;;;1.95;0.60;;;17.60;59.40;;;;;;7405213;19;19936;-64
2022/12/28 00:34:25;;;;;;;2.72;0.43;;;17.60;59.40;;;;;;7404651;19;19937;-63
2022/12/28 00:36:55;;;;;;;1.90;0.20;;;17.70;59.40;;;;;;7405267;19;19923;-63
2022/12/28 00:39:24;;;;;;;1.38;0.22;;;17.70;59.30;;;;;;7405429;19;19914;-63
2022/12/28 00:41:53;;;;;;;1.42;0.50;;;17.80;59.30;;;;;;7405118;19;19974;-64
2022/12/28 00:44:23;;;;;;;1.42;0.30;;;17.80;59.20;;;;;;7403660;19;19925;-63
2022/12/28 00:46:54;;;;;;;2.00;0.30;;;17.80;59.10;;;;;;7404619;19;19918;-63
2022/12/28 00:49:23;;;;;;;2.13;0.43;;;17.90;59.10;;;;;;7404427;19;19919;-63
2022/12/28 00:51:53;;;;;;;1.52;0.85;;;17.90;59.00;;;;;;7404643;19;20746;-63
2022/12/28 00:54:22;;;;;;;1.10;0.20;;;17.90;59.00;;;;;;7404894;19;19970;-63
2022/12/28 00:56:51;;;;;;;2.35;0.25;;;18.00;59.00;;;;;;7404423;19;20314;-64
2022/12/28 00:59:20;;;;;;;1.35;0.30;;;17.90;58.90;;;;;;7404714;19;19922;-63
2022/12/28 01:01:49;;;;;;;2.10;0.75;;;17.90;59.00;;;;;;7404413;19;19918;-63
2022/12/28 01:04:21;;;;;;;2.45;0.40;;;17.90;58.90;;;;;;7402204;19;19966;-63
2022/12/28 01:06:50;;;;;;;1.60;0.43;;;17.90;58.90;;;;;;7405006;19;19922;-63
2022/12/28 01:09:20;;;;;;;1.58;0.63;;;17.90;58.90;;;;;;7404458;19;19911;-63
2022/12/28 01:11:49;;;;;;;1.63;0.30;;;17.90;59.00;;;;;;7403788;19;19919;-63
2022/12/28 01:14:18;;;;;;;1.67;0.22;;;17.80;58.80;;;;;;7403602;19;19922;-63
2022/12/28 01:16:47;;;;;;;2.28;0.38;;;17.80;58.90;;;;;;7403698;19;19914;-63
2022/12/28 01:19:22;;;;;;;2.20;0.50;;;17.80;58.90;;;;;;7402334;19;20264;-63
2022/12/28 01:21:53;;;;;;;1.63;0.82;;;17.80;59.00;;;;;;7403949;19;20256;-63
2022/12/28 01:24:22;;;;;;;1.40;0.32;;;17.70;59.00;;;;;;7402238;19;19918;-63
2022/12/28 01:26:51;;;;;;;2.38;0.82;;;17.70;59.00;;;;;;7403117;19;19928;-63
2022/12/28 01:29:20;;;;;;;1.13;0.22;;;17.70;59.10;;;;;;7402157;19;20011;-63
2022/12/28 01:31:54;;;;;;;1.67;0.28;;;17.60;59.10;;;;;;7403102;19;19914;-62
2022/12/28 01:34:29;;;;;;;1.13;0.50;;;17.60;59.20;;;;;;7401120;19;19911;-63
2022/12/28 01:36:58;;;;;;;1.77;0.47;;;17.60;59.20;;;;;;7403012;19;20333;-63
2022/12/28 01:39:28;;;;;;;1.77;0.60;;;17.50;59.30;;;;;;7405737;19;20327;-63
2022/12/28 01:41:57;;;;;;;2.15;0.75;;;17.50;59.30;;;;;;7405582;19;20258;-63
2022/12/28 01:44:46;;;;;;;1.40;0.35;;;17.50;60.00;;;;;;7401231;19;19939;-63
2022/12/28 01:47:18;;;;;;;1.45;0.70;;;17.50;59.40;;;;;;7403461;19;20300;-63
2022/12/28 01:49:58;;;;;;;2.63;0.80;;;17.50;59.30;;;;;;7402368;19;19992;-63
2022/12/28 01:52:34;;;;;;;1.85;0.32;;;17.50;59.30;;;;;;7402936;19;19941;-63
2022/12/28 01:55:09;;;;;;;2.17;0.57;;;17.50;59.20;;;;;;7403441;19;19987;-63
2022/12/28 01:57:44;;;;;;;1.45;0.30;;;17.50;59.20;;;;;;7402596;19;19929;-63
2022/12/28 02:00:16;;;;;;;2.45;0.70;;;17.50;59.20;;;;;;7402698;19;19918;-63
2022/12/28 02:02:52;;;;;;;1.33;0.45;;;17.50;59.20;;;;;;7399715;19;19918;-63
2022/12/28 02:05:28;;;;;;;1.30;0.20;;;17.50;59.10;;;;;;7402502;19;19911;-63
2022/12/28 02:08:03;;;;;;;1.23;0.60;;;17.60;59.20;;;;;;7404712;19;19914;-63
2022/12/28 02:10:34;;;;;;;1.20;0.32;;;17.60;59.20;;;;;;7401821;19;19915;-63
2022/12/28 02:13:04;;;;;;;1.40;0.20;;;17.70;59.10;;;;;;7400320;19;20344;-63
2022/12/28 02:15:34;;;;;;;1.60;0.20;;;17.70;59.10;;;;;;7409243;19;19915;-63
2022/12/28 02:18:03;;;;;;;1.40;0.22;;;17.70;59.10;;;;;;7407770;19;19919;-63
2022/12/28 02:20:39;;;;;;;;;;;17.80;59.00;;;;;;7411161;19;19914;-63
2022/12/28 02:23:38;;;;;;;1.50;0.20;;;17.80;59.10;;;;;;7408278;19;19935;-63
2022/12/28 02:26:33;;;;;;;2.65;0.30;;;17.80;58.90;;;;;;7408730;19;19914;-64
2022/12/28 02:29:34;;;;;;;1.25;0.20;;;17.90;58.90;;;;;;7405673;19;19994;-63
2022/12/28 02:32:17;;;;;;;0.57;0.10;;;17.90;58.80;;;;;;7408921;19;19931;-63
2022/12/28 02:34:54;;;;;;;1.00;0.20;;;17.90;58.70;;;;;;7408138;19;19915;-63
2022/12/28 02:37:29;;;;;;;1.70;0.75;;;17.90;58.70;;;;;;7410425;19;19922;-63
2022/12/28 02:40:04;;;;;;;2.03;0.70;;;17.90;58.70;;;;;;7408640;19;20296;-63
2022/12/28 02:42:36;;;;;;;1.42;0.68;;;17.90;58.70;;;;;;7408569;19;19997;-63
2022/12/28 02:50:44;;;;;;;2.20;0.30;;;17.90;58.70;;;;;;7408136;19;19915;-63
2022/12/28 02:53:40;;;;;;;1.75;0.77;;;17.80;58.60;;;;;;7408763;19;19933;-63
2022/12/28 02:56:20;;;;;;;2.00;1.20;;;17.80;58.70;;;;;;7407914;19;19959;-63
2022/12/28 02:59:22;;;;;;;1.35;0.43;;;17.80;58.80;;;;;;7407509;19;19923;-63
2022/12/28 03:02:15;;;;;;;2.13;0.90;;;17.80;58.90;;;;;;7406771;19;19930;-63
2022/12/28 03:05:03;;;;;;;2.13;0.50;;;17.70;58.90;;;;;;7404911;19;19918;-63
2022/12/28 03:10:26;;;;;;;1.67;0.30;;;17.60;59.00;;;;;;7407829;19;20332;-63
2022/12/28 03:13:02;;;;;;;2.65;0.45;;;17.60;59.10;;;;;;7407274;19;20296;-63
2022/12/28 03:15:33;;;;;;;;;;;17.50;59.10;;;;;;7410135;19;19911;-63
2022/12/28 03:31:46;;;;;;;1.90;0.40;;;17.50;59.90;;;;;;7406710;19;19922;-63
2022/12/28 03:34:15;;;;;;;;;;;17.40;59.20;;;;;;7408722;19;19934;-63
2022/12/28 03:36:56;;;;;;;1.20;0.30;;;17.40;59.30;;;;;;7409745;19;19919;-63
2022/12/28 03:39:38;;;;;;;1.27;0.30;;;17.50;59.30;;;;;;7407067;19;19935;-63
2022/12/28 03:45:01;;;;;;;1.33;0.30;;;17.50;59.20;;;;;;7405200;19;20702;-63
2022/12/28 03:47:33;;;;;;;1.77;0.70;;;17.60;59.20;;;;;;7404772;19;19915;-63
2022/12/28 03:50:02;;;;;;;1.20;0.22;;;17.60;59.20;;;;;;7406536;19;20252;-63
2022/12/28 03:52:39;;;;;;;1.27;0.30;;;17.60;59.10;;;;;;7406251;19;19910;-63
2022/12/28 03:55:09;;;;;;;1.30;0.30;;;17.70;59.10;;;;;;7404598;19;19939;-63
2022/12/28 03:57:37;;;;;;;;;;;17.70;59.10;;;;;;7408393;19;19915;-63
2022/12/28 04:00:09;;;;;;;1.38;0.20;;;17.80;59.20;;;;;;7406061;19;19911;-63
2022/12/28 04:02:38;;;;;;;1.10;0.17;;;17.80;59.00;;;;;;7405621;19;19921;-63
2022/12/28 04:05:08;;;;;;;1.52;0.50;;;17.90;59.00;;;;;;7404050;19;19931;-63
2022/12/28 04:07:40;;;;;;;1.58;0.40;;;17.90;58.90;;;;;;7409799;19;20327;-63
2022/12/28 04:10:10;;;;;;;2.55;0.45;;;17.90;58.90;;;;;;7406069;19;19914;-63
2022/12/28 04:12:39;;;;;;;1.88;0.22;;;17.90;58.80;;;;;;7405925;19;19911;-63
2022/12/28 04:15:09;;;;;;;1.85;0.30;;;18.00;58.90;;;;;;7405754;19;19918;-63
2022/12/28 04:17:38;;;;;;;1.38;0.55;;;18.00;58.90;;;;;;7405123;19;20263;-63
2022/12/28 04:20:09;;;;;;;1.42;0.20;;;17.90;58.80;;;;;;7405712;19;19982;-63
2022/12/28 04:22:41;;;;;;;1.38;0.40;;;17.90;58.80;;;;;;7405875;19;19922;-63
2022/12/28 04:25:10;;;;;;;1.00;0.50;;;17.90;58.80;;;;;;7404093;19;19917;-63
2022/12/28 04:27:39;;;;;;;0.98;0.30;;;17.90;58.90;;;;;;7405257;19;19918;-63
2022/12/28 04:30:10;;;;;;;1.38;0.43;;;17.90;58.90;;;;;;7403517;19;20320;-62
2022/12/28 04:32:39;;;;;;;1.08;0.32;;;17.90;58.90;;;;;;7405038;19;19927;-63
2022/12/28 04:35:09;;;;;;;2.47;0.68;;;17.80;58.80;;;;;;7404000;19;20706;-63
2022/12/28 04:37:41;;;;;;;1.35;0.50;;;17.80;58.90;;;;;;7407283;19;20303;-63
2022/12/28 04:40:12;;;;;;;0.63;0.10;;;17.80;58.90;;;;;;7404982;19;19922;-63
2022/12/28 04:42:41;;;;;;;1.00;0.20;;;17.80;59.00;;;;;;7404513;19;19911;-63
2022/12/28 04:45:11;;;;;;;1.02;0.47;;;17.70;59.00;;;;;;7403636;19;19934;-63
2022/12/28 04:47:40;;;;;;;1.38;0.52;;;17.70;59.10;;;;;;7404971;19;19921;-63
2022/12/28 04:50:10;;;;;;;1.08;0.20;;;17.70;59.10;;;;;;7404582;19;20331;-63
2022/12/28 04:52:42;;;;;;;1.10;0.20;;;17.60;59.30;;;;;;7405336;19;19914;-63
2022/12/28 04:55:11;;;;;;;1.00;0.32;;;17.60;59.30;;;;;;7404076;19;19910;-63
2022/12/28 04:57:40;;;;;;;0.98;0.10;;;17.50;59.30;;;;;;7404439;19;19982;-63
2022/12/28 05:00:11;;;;;;;1.25;0.63;;;17.50;59.50;;;;;;7404630;19;20253;-63
2022/12/28 05:02:44;;;;;;;1.30;0.60;;;17.50;59.60;;;;;;7404215;19;20331;-63
2022/12/28 05:05:14;;;;;;;1.23;0.43;;;17.50;59.60;;;;;;7404547;19;19978;-63
2022/12/28 05:07:45;;;;;;;0.90;0.40;;;17.40;59.60;;;;;;7404506;19;19918;-63
2022/12/28 05:10:14;;;;;;;1.17;0.45;;;17.40;59.60;;;;;;7404194;19;19929;-63
2022/12/28 05:12:44;;;;;;;1.40;0.40;;;17.40;59.60;;;;;;7404055;19;19915;-63
2022/12/28 05:15:13;;;;;;;1.25;0.43;;;17.40;59.60;;;;;;7404000;19;20273;-63
2022/12/28 05:17:42;;;;;;;0.60;0.10;;;17.40;59.60;;;;;;7403637;19;19934;-63
2022/12/28 05:20:12;;;;;;;1.35;0.40;;;17.50;59.70;;;;;;7404024;19;20300;-62
2022/12/28 05:22:41;;;;;;;1.10;0.55;;;17.50;59.70;;;;;;7404034;19;19918;-63
2022/12/28 05:25:13;;;;;;;1.17;0.38;;;17.50;59.70;;;;;;7402762;19;19948;-63
2022/12/28 05:27:42;;;;;;;1.08;0.10;;;17.50;59.60;;;;;;7403610;19;19938;-63
2022/12/28 05:30:12;;;;;;;1.27;0.63;;;17.60;59.70;;;;;;7402360;19;19914;-62
2022/12/28 05:32:47;;;;;;;0.85;0.45;;;17.60;59.60;;;;;;7403635;19;20263;-63
2022/12/28 05:35:16;;;;;;;1.25;0.10;;;17.60;59.60;;;;;;7404598;19;19918;-62
2022/12/28 05:37:45;;;;;;;0.43;0.10;;;17.70;59.60;;;;;;7403790;19;19914;-63
2022/12/28 05:40:19;;;;;;;1.58;0.15;;;17.70;59.60;;;;;;7403653;19;19931;-63
2022/12/28 05:42:48;;;;;;;1.23;0.20;;;17.80;59.60;;;;;;7403776;19;19942;-63
2022/12/28 05:45:17;;;;;;;1.17;0.30;;;17.80;59.50;;;;;;7402122;19;20089;-63
2022/12/28 05:47:46;;;;;;;1.50;0.52;;;17.90;59.50;;;;;;7402693;19;19914;-63
2022/12/28 05:50:15;;;;;;;1.15;0.60;;;17.90;59.40;;;;;;7409645;19;20282;-63
2022/12/28 05:52:44;;;;;;;0.98;0.25;;;17.90;59.30;;;;;;7409651;19;19915;-63
2022/12/28 05:55:13;;;;;;;1.58;0.32;;;18.00;59.30;;;;;;7409844;19;19918;-63
2022/12/28 05:57:45;;;;;;;0.95;0.20;;;18.00;59.30;;;;;;7409316;19;19923;-63
2022/12/28 06:00:16;;;;;;;0.60;0.20;;;18.00;59.30;;;;;;7409756;19;19915;-63
2022/12/28 06:02:45;;;;;;;1.23;0.40;;;18.00;59.20;;;;;;7408951;19;20265;-63
2022/12/28 06:05:14;;;;;;;1.02;0.50;;;17.90;59.20;;;;;;7407959;19;19919;-63
2022/12/28 06:07:43;;;;;;;0.60;0.13;;;17.90;59.20;;;;;;7413840;19;19922;-63
2022/12/28 06:10:12;;;;;;;1.02;0.40;;;17.90;59.30;;;;;;7408923;19;19918;-63
2022/12/28 06:12:41;;;;;;;1.33;0.60;;;17.90;59.30;;;;;;7407497;19;19918;-63
2022/12/28 06:15:13;;;;;;;1.38;0.63;;;17.90;59.30;;;;;;7411473;19;19911;-63
2022/12/28 06:17:42;;;;;;;0.95;0.30;;;17.90;59.40;;;;;;7408392;19;20393;-63
2022/12/28 06:20:13;;;;;;;0.70;0.13;;;17.80;59.40;;;;;;7409311;19;20339;-64
2022/12/28 06:22:42;;;;;;;0.68;0.20;;;17.80;59.40;;;;;;7409062;19;19942;-63
2022/12/28 06:25:12;;;;;;;1.08;0.22;;;17.80;59.50;;;;;;7407499;19;19953;-63
2022/12/28 06:27:41;;;;;;;0.60;0.05;;;17.80;59.50;;;;;;7408647;19;20336;-63
2022/12/28 06:30:15;;;;;;;0.65;0.10;;;17.70;59.60;;;;;;7406384;19;19923;-63
2022/12/28 06:32:44;;;;;;;1.15;0.32;;;17.70;59.70;;;;;;7408461;19;20028;-62
2022/12/28 06:35:13;;;;;;;0.90;0.22;;;17.60;59.70;;;;;;7412726;19;19936;-63
2022/12/28 06:37:42;;;;;;;1.10;0.22;;;17.60;59.80;;;;;;7408394;19;19914;-63
2022/12/28 06:40:16;;;;;;;0.77;0.35;;;17.60;59.90;;;;;;7408585;19;19914;-63
2022/12/28 06:42:46;;;;;;;0.90;0.25;;;17.50;60.00;;;;;;7408411;19;19939;-63
2022/12/28 06:45:18;;;;;;;0.75;0.15;;;17.50;60.10;;;;;;7407480;19;19932;-63
2022/12/28 06:47:47;;;;;;;1.33;0.40;;;17.50;60.10;;;;;;7407956;19;19910;-63
2022/12/28 06:50:16;;;;;;;1.73;0.52;;;17.50;60.10;;;;;;7408519;19;19937;-63
2022/12/28 06:52:45;;;;;;;0.70;0.10;;;17.50;60.10;;;;;;7408490;19;19942;-63
2022/12/28 06:55:15;;;;;;;0.90;0.10;;;17.50;60.10;;;;;;7408059;19;19931;-63
2022/12/28 06:57:44;;;;;;;1.00;0.20;;;17.50;60.20;;;;;;7407955;19;19923;-63
2022/12/28 07:00:17;;;;;;;0.75;0.22;;;17.50;60.20;;;;;;7407186;19;20391;-63
2022/12/28 07:02:46;;;;;;;0.70;0.30;;;17.50;60.20;;;;;;7407086;19;19946;-63
2022/12/28 07:05:15;;;;;;;0.60;0.13;;;17.50;60.10;;;;;;7408894;19;19928;-62
2022/12/28 07:07:47;;;;;;;0.95;0.60;;;17.60;60.20;;;;;;7407454;19;20341;-63
2022/12/28 07:10:16;;;;;;;0.68;0.10;;;17.60;60.20;;;;;;7407496;19;19938;-63
2022/12/28 07:12:45;;;;;;;0.95;0.22;;;17.60;60.20;;;;;;7407315;19;19938;-63
2022/12/28 07:15:17;;;;;;;0.63;0.10;;;17.60;60.20;;;;;;7407195;19;20348;-63
2022/12/28 07:17:46;;;;;;;0.40;0.10;;;17.70;60.20;;;;;;7406849;19;19922;-63
2022/12/28 07:20:15;;;;;;;0.80;0.05;;;17.70;60.10;;;;;;7407423;19;19942;-63
2022/12/28 07:22:44;;;;;;;0.80;0.22;;;17.80;60.20;;;;;;7407381;19;19950;-63
2022/12/28 07:25:13;;;;;;;0.52;0.30;;;17.80;60.10;;;;;;7406249;19;20031;-63
2022/12/28 07:27:43;;;;;;;1.63;0.13;;;17.90;60.10;;;;;;7407445;19;19918;-63
2022/12/28 07:30:13;;;;;;;1.05;0.50;;;17.90;60.10;;;;;;7404839;19;20248;-63
2022/12/28 07:32:53;;;;;;;0.60;0.10;;;17.90;60.00;;;;;;7406371;19;19937;-63
2022/12/28 07:35:22;;;;;;;0.88;0.10;;;18.00;60.00;;;;;;7410762;19;20393;-63
2022/12/28 07:37:52;;;;;;;0.70;0.22;;;18.00;60.00;;;;;;7406855;19;19926;-63
2022/12/28 07:40:21;;;;;;;0.40;0.13;;;17.90;60.00;;;;;;7407403;19;19918;-63
2022/12/28 07:42:50;;;;;;;0.68;0.10;;;17.90;60.00;;;;;;7406958;19;19942;-63
2022/12/28 07:45:20;;;;;;;1.10;0.60;;;17.90;60.00;;;;;;7404393;19;20240;-63
2022/12/28 07:47:49;;;;;;;1.02;0.65;;;17.90;60.00;;;;;;7406197;19;19938;-63
2022/12/28 07:50:21;;;;;;;1.20;0.40;;;17.90;60.00;;;;;;7406331;19;20311;-63
2022/12/28 07:52:56;;;;;;;0.50;0.20;;;17.90;60.00;;;;;;7406371;19;19917;-63
2022/12/28 07:55:28;;;;;;;0.30;0.10;;;17.80;60.00;;;;;;7406518;19;19919;-63
2022/12/28 07:57:57;;;;;;;0.80;0.10;;;17.80;60.10;;;;;;7406260;19;19919;-62
2022/12/28 08:00:27;;;;;;;0.98;0.10;;;17.80;60.10;;;;;;7406341;19;19914;-63
2022/12/28 08:02:57;;;;;;;0.68;0.30;;;17.80;60.20;;;;;;7406634;19;19915;-62
2022/12/28 08:05:29;;;;;;;0.50;0.10;;;17.70;60.20;;;;;;7405743;19;19925;-62
2022/12/28 08:07:58;;;;;;;0.65;0.45;;;17.70;60.20;;;;;;7404483;19;20249;-63
2022/12/28 08:10:30;;;;;;;0.70;0.40;;;17.70;60.30;;;;;;7406321;19;19970;-63
2022/12/28 08:13:00;;;;;;;0.90;0.20;;;17.70;60.40;;;;;;7404298;19;19914;-63
2022/12/28 08:15:30;;;;;;;0.95;0.60;;;17.60;60.40;;;;;;7405753;19;19915;-63
2022/12/28 08:18:00;;;;;;;0.57;0.10;;;17.60;60.50;;;;;;7404904;19;19922;-63
2022/12/28 08:20:40;;;;;;;1.08;0.30;;;17.50;60.50;;;;;;7406191;19;19918;-63
2022/12/28 08:23:09;;;;;;;0.70;0.40;;;17.50;60.60;;;;;;7405675;19;19907;-63
2022/12/28 08:25:38;;;;;;;1.20;0.60;;;17.50;60.70;;;;;;7404442;19;20348;-63
2022/12/28 08:28:07;;;;;;;1.65;0.52;;;17.50;60.70;;;;;;7404996;19;19922;-62
2022/12/28 08:30:38;;;;;;;1.10;0.55;;;17.50;60.80;;;;;;7405360;19;19925;-62
2022/12/28 08:33:07;;;;;;;1.05;0.63;;;17.50;60.80;;;;;;7407541;19;19941;-63
2022/12/28 08:35:39;;;;;;;0.40;0.10;;;17.50;60.80;;;;;;7405564;19;19918;-63
2022/12/28 08:38:08;;;;;;;1.05;0.57;;;17.50;60.90;;;;;;7404989;19;20344;-63
2022/12/28 08:40:37;;;;;;;1.33;0.20;;;17.50;60.90;;;;;;7405218;19;19917;-63
2022/12/28 08:43:07;;;;;;;0.73;0.13;;;17.60;61.00;;;;;;7405297;19;19930;-63
2022/12/28 08:45:36;;;;;;;0.80;0.10;;;17.60;60.90;;;;;;7404161;19;19911;-62
2022/12/28 08:48:05;;;;;;;0.43;0.20;;;17.60;60.90;;;;;;7405127;19;19948;-62
2022/12/28 08:50:34;;;;;;;;;;;17.70;60.90;;;;;;7407344;19;19942;-63
2022/12/28 08:53:06;;;;;;;1.35;0.38;;;17.70;61.00;;;;;;7404855;19;19919;-63
2022/12/28 08:55:35;;;;;;;0.70;0.30;;;17.80;60.90;;;;;;7404854;19;19919;-62
2022/12/28 08:58:04;;;;;;;0.45;0.10;;;17.80;60.80;;;;;;7404693;19;20364;-63
2022/12/28 09:00:33;;;;;;;0.52;0.22;;;17.80;60.80;;;;;;7404780;19;20388;-62
2022/12/28 09:03:02;;;;;;;0.40;0.10;;;17.90;60.80;;;;;;7405857;19;19923;-63
2022/12/28 09:05:31;;;;;;;0.50;0.10;;;17.90;60.60;;;;;;7404402;19;19919;-63
2022/12/28 09:08:01;;;;;;;0.95;0.10;;;18.00;60.70;;;;;;7404751;19;19926;-62
2022/12/28 09:10:32;;;;;;;0.43;0.10;;;18.00;60.60;;;;;;7404148;19;19911;-63
2022/12/28 09:13:01;;;;;;;0.68;0.10;;;18.00;60.60;;;;;;7403985;19;19931;-63
2022/12/28 09:15:30;;;;;;;1.73;0.20;;;18.00;60.60;;;;;;7403662;19;19915;-62
2022/12/28 09:17:59;;;;;;;0.93;0.20;;;18.00;60.60;;;;;;7403346;19;19922;-63
2022/12/28 09:20:29;;;;;;;0.82;0.20;;;18.00;60.60;;;;;;7403760;19;19919;-63
2022/12/28 09:22:58;;;;;;;;;;;18.00;60.70;;;;;;7406072;19;19919;-63
2022/12/28 09:25:27;;;;;;;0.50;0.15;;;18.00;60.80;;;;;;7409233;19;19915;-63
2022/12/28 09:27:59;;;;;;;1.67;0.47;;;18.00;60.80;;;;;;7410298;19;19910;-62
2022/12/28 09:30:28;;;;;;;0.90;0.35;;;17.90;60.70;;;;;;7410134;19;20023;-63
2022/12/28 09:33:57;;;;;;;0.52;0.30;;;17.90;60.80;;;;;;7414085;19;19918;-62
2022/12/28 09:35:47;;;;;;;0.30;0.03;;;17.90;60.80;;;;;;7410971;19;19979;-62
2022/12/28 09:38:17;;;;;;;0.52;0.38;;;17.90;60.90;;;;;;7409956;19;19914;-63
2022/12/28 09:40:46;;;;;;;;;;;17.90;60.90;;;;;;7412183;19;19915;-63
2022/12/28 09:43:19;;;;;;;0.50;0.10;;;17.80;60.90;;;;;;7409963;19;19915;-63
2022/12/28 09:45:49;;;;;;;0.50;0.10;;;17.80;61.00;;;;;;7408727;19;19919;-62
2022/12/28 09:48:25;;;;;;;0.90;0.73;;;17.70;61.00;;;;;;7409881;19;19985;-63
2022/12/28 09:50:55;;;;;;;1.02;0.28;;;17.70;61.10;;;;;;7409468;19;19915;-63
2022/12/28 09:53:28;;;;;;;0.68;0.10;;;17.70;61.70;;;;;;7409825;19;20363;-63
2022/12/28 09:56:04;;;;;;;0.43;0.10;;;17.70;61.20;;;;;;7409466;19;19918;-62
2022/12/28 09:58:37;;;;;;;;;;;17.60;61.20;;;;;;7410080;19;19925;-62
2022/12/28 10:01:14;;;;;;;0.63;0.13;;;17.60;61.40;;;;;;7410578;19;19928;-62
2022/12/28 10:03:57;;;;;;;0.43;0.13;;;17.60;61.40;;;;;;7408906;19;20336;-62
2022/12/28 10:06:30;;;;;;;0.70;0.40;;;17.50;61.40;;;;;;7408261;19;19923;-62
2022/12/28 10:09:04;;;;;;;0.75;0.52;;;17.50;61.50;;;;;;7409210;19;19915;-63
2022/12/28 10:11:35;;;;;;;0.82;0.10;;;17.50;61.60;;;;;;7409301;19;20335;-62
2022/12/28 10:14:32;;;;;;;0.60;0.10;;;17.50;61.60;;;;;;7408878;19;19939;-63
2022/12/28 10:17:01;;;;;;;0.85;0.10;;;17.50;61.60;;;;;;7408862;19;19925;-63
2022/12/28 10:19:33;;;;;;;0.93;0.10;;;17.50;61.60;;;;;;7406741;19;19922;-62
2022/12/28 10:22:05;;;;;;;0.43;0.10;;;17.50;61.60;;;;;;7409012;19;19978;-62
2022/12/28 10:24:41;;;;;;;0.38;0.13;;;17.50;61.60;;;;;;7408620;19;20651;-63
2022/12/28 10:27:23;;;;;;;0.65;0.20;;;17.60;61.70;;;;;;7405065;19;19918;-63
2022/12/28 10:29:56;;;;;;;0.38;0.10;;;17.60;61.70;;;;;;7407901;19;20316;-63
2022/12/28 10:32:27;;;;;;;1.00;0.20;;;17.60;61.70;;;;;;7408578;19;19918;-63
2022/12/28 10:34:58;;;;;;;0.68;0.13;;;17.70;61.70;;;;;;7407622;19;19919;-62
2022/12/28 10:37:30;;;;;;;0.52;0.13;;;17.70;61.60;;;;;;7408895;19;19918;-62
2022/12/28 10:40:02;;;;;;;0.80;0.13;;;17.80;61.60;;;;;;7408605;19;19974;-63
2022/12/28 10:42:40;;;;;;;1.23;0.10;;;17.80;61.60;;;;;;7408453;19;19936;-63
2022/12/28 10:45:23;;;;;;;0.55;0.15;;;17.90;61.50;;;;;;7408507;19;19917;-62
2022/12/28 10:47:54;;;;;;;0.68;0.30;;;17.90;61.50;;;;;;7407485;19;19915;-62
2022/12/28 10:50:39;;;;;;;0.95;0.10;;;17.90;61.40;;;;;;7408725;19;19933;-62
2022/12/28 10:53:18;;;;;;;0.65;0.10;;;18.00;61.50;;;;;;7407932;19;19917;-63
2022/12/28 10:55:47;;;;;;;0.60;0.13;;;18.00;61.40;;;;;;7407841;19;19915;-63
2022/12/28 10:58:21;;;;;;;0.77;0.25;;;18.00;61.30;;;;;;7408180;19;19926;-63
2022/12/28 11:01:01;;;;;;;0.77;0.28;;;18.00;61.40;;;;;;7411264;19;19974;-63
2022/12/28 11:03:34;;;;;;;0.52;0.15;;;18.00;61.40;;;;;;7407655;19;19911;-62
2022/12/28 11:06:17;;;;;;;0.30;0.00;;;18.00;61.40;;;;;;7406621;19;19982;-63
2022/12/28 11:09:00;;;;;;;0.60;0.22;;;17.90;61.40;;;;;;7408148;19;20251;-63
2022/12/28 11:11:30;;;;;;;0.80;0.35;;;17.90;61.40;;;;;;7407266;19;20360;-63
2022/12/28 11:14:07;;;;;;;0.43;0.10;;;17.90;61.50;;;;;;7407404;19;19930;-62
2022/12/28 11:16:42;;;;;;;0.43;0.10;;;17.90;61.50;;;;;;7408065;19;19919;-63
2022/12/28 11:19:13;;;;;;;0.88;0.43;;;17.90;61.50;;;;;;7406184;19;19932;-62
2022/12/28 11:21:50;;;;;;;0.52;0.10;;;17.80;61.50;;;;;;7407630;19;19914;-62
2022/12/28 11:24:28;;;;;;;0.90;0.32;;;17.80;61.60;;;;;;7406980;19;19938;-63
2022/12/28 11:26:57;;;;;;;0.50;0.10;;;17.80;61.60;;;;;;7405779;19;19918;-63
2022/12/28 11:29:26;;;;;;;0.80;0.40;;;17.70;61.60;;;;;;7405154;19;20217;-63
2022/12/28 11:32:03;;;;;;;0.32;0.22;;;17.70;61.70;;;;;;7411914;19;19939;-63
2022/12/28 11:34:38;;;;;;;0.60;0.40;;;17.70;61.80;;;;;;7406680;19;19949;-62
2022/12/28 11:37:14;;;;;;;0.50;0.17;;;17.70;61.80;;;;;;7404942;19;20329;-63
2022/12/28 11:39:46;;;;;;;0.65;0.10;;;17.60;61.90;;;;;;7407160;19;19914;-63
2022/12/28 11:42:50;;;;;;;0.60;0.22;;;17.60;61.90;;;;;;7407189;19;19970;-62
2022/12/28 11:45:52;;;;;;;0.60;0.22;;;17.60;62.00;;;;;;7406284;19;19981;-63
2022/12/28 11:48:58;;;;;;;0.60;0.40;;;17.60;62.20;;;;;;7406505;19;19935;-63
2022/12/28 11:51:29;;;;;;;0.82;0.75;;;17.50;62.10;;;;;;7406430;19;19914;-63
2022/12/28 11:54:01;;;;;;;0.30;0.03;;;17.50;62.20;;;;;;7406397;19;19915;-62
2022/12/28 11:57:00;;;;;;;0.50;0.13;;;17.50;62.20;;;;;;7406864;19;20282;-63
2022/12/28 11:59:31;;;;;;;0.88;0.22;;;17.50;62.20;;;;;;7410164;19;19914;-63
2022/12/28 12:02:01;;;;;;;0.52;0.10;;;17.50;62.30;;;;;;7406565;19;19910;-62
2022/12/28 12:04:38;;;;;;;0.50;0.03;;;17.60;62.30;;;;;;7405955;19;20346;-62
2022/12/28 12:07:22;;;;;;;0.57;0.13;;;17.60;62.30;;;;;;7404824;19;19907;-63
2022/12/28 12:10:37;;;;;;;0.43;0.10;;;17.60;62.30;;;;;;7406285;19;19971;-63
2022/12/28 12:13:36;;;;;;;0.85;0.43;;;17.60;62.30;;;;;;7405645;19;19919;-62
2022/12/28 12:16:10;;;;;;;0.70;0.22;;;17.70;62.20;;;;;;7405706;19;19925;-63
2022/12/28 12:18:48;;;;;;;0.50;0.20;;;17.80;62.20;;;;;;7404769;19;19943;-62
2022/12/28 12:21:32;;;;;;;0.60;0.45;;;17.80;62.10;;;;;;7405921;19;19919;-63
2022/12/28 12:24:12;;;;;;;1.23;0.20;;;17.90;62.10;;;;;;7404378;19;19914;-63
2022/12/28 12:26:46;;;;;;;0.73;0.63;;;17.90;62.00;;;;;;7404689;19;19919;-63
2022/12/28 12:29:20;;;;;;;0.68;0.13;;;18.00;62.00;;;;;;7406168;19;19922;-63
2022/12/28 12:31:57;;;;;;;0.65;0.43;;;18.10;62.10;;;;;;7405592;19;19926;-63
2022/12/28 12:34:31;;;;;;;0.28;0.00;;;18.00;62.00;;;;;;7405155;19;19915;-62
2022/12/28 12:37:24;;;;;;;0.40;0.13;;;18.00;61.90;;;;;;7405424;19;19907;-63
2022/12/28 12:40:16;;;;;;;0.57;0.10;;;18.10;62.00;;;;;;7404545;19;19916;-63
2022/12/28 12:42:59;;;;;;;0.35;0.13;;;18.10;62.00;;;;;;7405038;19;19922;-62
2022/12/28 12:45:41;;;;;;;0.90;0.20;;;18.00;62.00;;;;;;7404950;19;19931;-62
2022/12/28 12:48:31;;;;;;;0.57;0.15;;;18.00;62.00;;;;;;7403112;19;19911;-62
2022/12/28 12:51:18;;;;;;;0.30;0.10;;;18.00;62.10;;;;;;7404978;19;19914;-62
2022/12/28 12:54:19;;;;;;;0.65;0.10;;;18.00;62.10;;;;;;7404727;19;19974;-61
2022/12/28 12:56:54;;;;;;;0.43;0.03;;;18.00;62.20;;;;;;7403757;19;19919;-61
2022/12/28 12:59:43;;;;;;;0.63;0.00;;;17.90;62.10;;;;;;7404268;19;19919;-62
2022/12/28 13:02:33;;;;;;;0.40;0.05;;;17.90;62.20;;;;;;7402338;19;19945;-62
2022/12/28 13:05:05;;;;;;;0.38;0.03;;;17.90;62.30;;;;;;7404187;19;19938;-62
2022/12/28 13:07:35;;;;;;;0.65;0.03;;;17.80;62.30;;;;;;7401595;19;19986;-62
2022/12/28 13:10:12;;;;;;;0.70;0.40;;;17.80;62.40;;;;;;7404191;19;19917;-62
2022/12/28 13:12:43;;;;;;;0.40;0.30;;;17.80;62.40;;;;;;7404221;19;20417;-62
2022/12/28 13:15:18;;;;;;;0.68;0.30;;;17.80;62.40;;;;;;7403777;19;20265;-62
2022/12/28 13:18:05;;;;;;;0.40;0.10;;;17.70;62.50;;;;;;7403079;19;19918;-62
2022/12/28 13:20:35;;;;;;;0.38;0.00;;;17.70;63.20;;;;;;7403941;19;19978;-62
2022/12/28 13:23:04;;;;;;;0.60;0.15;;;17.60;62.60;;;;;;7403561;19;19938;-62
2022/12/28 13:25:36;;;;;;;0.28;0.00;;;17.60;62.70;;;;;;7403662;19;19985;-62
2022/12/28 13:28:06;;;;;;;0.43;0.10;;;17.60;62.80;;;;;;7404821;19;19930;-62
2022/12/28 13:30:35;;;;;;;0.55;0.10;;;17.60;62.90;;;;;;7403646;19;19918;-62
2022/12/28 13:33:05;;;;;;;0.40;0.15;;;17.60;62.90;;;;;;7403175;19;19970;-61
2022/12/28 13:35:36;;;;;;;1.17;0.10;;;17.50;62.90;;;;;;7403301;19;20322;-62
2022/12/28 13:38:13;;;;;;;0.40;0.13;;;17.50;63.10;;;;;;7402994;19;19942;-62
2022/12/28 13:40:52;;;;;;;0.50;0.05;;;17.50;63.00;;;;;;7403236;19;19918;-61
2022/12/28 13:43:56;;;;;;;0.35;0.15;;;17.50;63.10;;;;;;7403619;19;19915;-61
2022/12/28 13:46:27;;;;;;;0.30;0.08;;;17.50;63.10;;;;;;7402773;19;19934;-62